Time;durP1;ratioP1;P1;durP2;ratioP2;P2;SDS_P1;SDS_P2;PMS_P1;PMS_P2;Temp;Humidity;BMP_temperature;BMP_pressure;BME280_temperature;BME280_humidity;BME280_pressure;Samples;Min_cycle;Max_cycle;Signal;HPM_P1;HPM_P2
2021/12/10 00:01:42;;;;;;;0.30;0.30;;;;;;;5.31;69.24;99757.50;5024907;28;20038;-82
2021/12/10 00:04:10;;;;;;;0.10;0.10;;;;;;;5.22;69.15;99753.28;5026353;28;20033;-82
2021/12/10 00:06:43;;;;;;;0.20;0.20;;;;;;;5.27;69.10;99747.94;5027649;28;20034;-81
2021/12/10 00:09:16;;;;;;;0.10;0.10;;;;;;;5.28;68.85;99747.94;5033178;28;20048;-82
2021/12/10 00:14:32;;;;;;;0.20;0.20;;;;;;;5.32;69.39;99746.09;5080349;28;20213;-82
2021/12/10 00:17:00;;;;;;;0.13;0.13;;;;;;;5.31;69.87;99737.34;5069351;28;20033;-82
2021/12/10 00:19:45;;;;;;;0.10;0.10;;;;;;;5.43;69.88;99723.16;5060213;28;20055;-82
2021/12/10 00:22:16;;;;;;;0.13;0.13;;;;;;;5.50;69.97;99714.25;5055777;28;20486;-82
2021/12/10 00:24:44;;;;;;;0.17;0.17;;;;;;;5.53;70.05;99713.34;5067255;28;20035;-82
2021/12/10 00:27:12;;;;;;;0.10;0.10;;;;;;;5.59;69.84;99707.13;5068493;28;20025;-82
2021/12/10 00:29:47;;;;;;;0.17;0.17;;;;;;;5.61;69.67;99706.19;5064807;28;20036;-82
2021/12/10 00:32:23;;;;;;;0.10;0.10;;;;;;;5.66;69.66;99703.50;5060672;28;20442;-82
2021/12/10 00:34:52;;;;;;;0.10;0.10;;;;;;;5.70;69.61;99691.19;5063878;28;20112;-83
2021/12/10 00:37:21;;;;;;;0.43;0.43;;;;;;;5.70;69.71;99689.41;5059136;28;20029;-82
2021/12/10 00:39:52;;;;;;;0.10;0.10;;;;;;;5.78;69.55;99698.03;5053888;28;20454;-81
2021/12/10 00:42:22;;;;;;;0.10;0.10;;;;;;;5.73;69.33;99684.09;5057560;28;20047;-81
2021/12/10 00:44:49;;;;;;;0.55;0.55;;;;;;;5.85;69.44;99671.63;5055157;28;20053;-81
2021/12/10 00:47:15;;;;;;;0.17;0.17;;;;;;;5.87;69.30;99675.06;5060715;28;20037;-81
2021/12/10 00:49:42;;;;;;;0.10;0.10;;;;;;;5.93;69.12;99674.94;5059261;28;20037;-81
2021/12/10 00:52:15;;;;;;;0.30;0.30;;;;;;;6.03;69.26;99666.03;5065821;28;20064;-81
2021/12/10 00:54:43;;;;;;;0.17;0.17;;;;;;;5.96;68.98;99661.75;5057889;28;20029;-81
2021/12/10 00:57:10;;;;;;;0.10;0.10;;;;;;;5.96;68.63;99659.13;5055232;28;20021;-82
2021/12/10 00:59:39;;;;;;;0.00;0.00;;;;;;;5.95;68.83;99641.59;5061765;28;20032;-82
2021/12/10 01:02:11;;;;;;;0.10;0.10;;;;;;;5.95;68.62;99642.47;5055228;28;20590;-82
2021/12/10 01:04:41;;;;;;;0.30;0.30;;;;;;;5.91;68.48;99630.28;5057401;28;20029;-83
2021/12/10 01:07:13;;;;;;;0.25;0.25;;;;;;;5.81;68.30;99629.59;5061971;28;20033;-82
2021/12/10 01:09:43;;;;;;;0.10;0.10;;;;;;;5.74;68.46;99616.63;5058079;28;20036;-83
2021/12/10 01:12:21;;;;;;;0.10;0.10;;;;;;;5.74;68.12;99606.09;5056656;28;20024;-83
2021/12/10 01:15:33;;;;;;;1.42;1.33;;;;;;;5.70;68.33;99602.66;5060297;28;20379;-83
2021/12/10 01:23:57;;;;;;;0.20;0.20;;;;;;;5.42;68.48;99590.09;5056031;28;20055;-82
2021/12/10 01:26:25;;;;;;;0.10;0.10;;;;;;;5.41;68.90;99583.09;5041853;28;20044;-84
2021/12/10 01:28:57;;;;;;;0.17;0.17;;;;;;;5.45;68.67;99584.75;5040523;28;20033;-83
2021/12/10 01:31:23;;;;;;;0.20;0.20;;;;;;;5.37;68.25;99586.69;5042692;28;20039;-83
2021/12/10 01:33:52;;;;;;;0.10;0.10;;;;;;;5.34;68.65;99581.47;5048412;28;20037;-80
2021/12/10 01:36:20;;;;;;;0.10;0.10;;;;;;;5.37;68.53;99578.81;5047685;28;20120;-81
2021/12/10 01:38:50;;;;;;;0.10;0.10;;;;;;;5.41;68.48;99566.44;5047853;28;20037;-82
2021/12/10 01:41:18;;;;;;;0.10;0.10;;;;;;;5.40;68.31;99570.00;5039332;28;20037;-83
2021/12/10 01:43:48;;;;;;;0.10;0.10;;;;;;;5.37;68.43;99557.78;5043884;28;20512;-83
2021/12/10 01:46:24;;;;;;;0.10;0.10;;;;;;;5.34;68.51;99557.84;5045737;28;20043;-84
2021/12/10 01:48:54;;;;;;;0.10;0.10;;;;;;;5.39;68.42;99560.38;5049143;28;20037;-83
2021/12/10 01:51:24;;;;;;;0.30;0.30;;;;;;;5.37;68.48;99542.03;5025927;28;20112;-83
2021/12/10 01:53:55;;;;;;;0.10;0.10;;;;;;;5.37;68.80;99539.41;5043031;28;20435;-83
2021/12/10 01:56:27;;;;;;;0.10;0.10;;;;;;;5.40;68.57;99547.22;5045406;28;20030;-83
2021/12/10 01:58:54;;;;;;;0.20;0.20;;;;;;;5.37;68.58;99535.91;5046655;28;20045;-83
2021/12/10 02:01:26;;;;;;;0.20;0.20;;;;;;;5.40;68.38;99531.44;5043052;28;20048;-84
2021/12/10 02:03:54;;;;;;;0.10;0.10;;;;;;;5.45;68.44;99526.97;5044587;28;20464;-83
2021/12/10 02:06:21;;;;;;;0.20;0.20;;;;;;;5.43;68.39;99515.66;5049378;28;20040;-80
2021/12/10 02:08:48;;;;;;;0.10;0.10;;;;;;;5.43;68.54;99513.00;5048146;28;20438;-83
2021/12/10 02:11:15;;;;;;;0.20;0.20;;;;;;;5.43;68.20;99502.50;5042950;28;20491;-81
2021/12/10 02:13:42;;;;;;;0.10;0.10;;;;;;;5.40;68.40;99492.03;5044242;28;20041;-84
2021/12/10 02:16:09;;;;;;;0.20;0.20;;;;;;;5.34;68.49;99486.91;5042109;28;20041;-84
2021/12/10 02:18:36;;;;;;;0.10;0.10;;;;;;;5.31;68.52;99490.47;5044926;28;20469;-84
2021/12/10 02:23:55;;;;;;;0.10;0.10;;;;;;;5.42;68.35;99474.50;5076803;27;20541;-83
2021/12/10 02:26:21;;;;;;;0.25;0.25;;;;;;;5.38;68.53;99478.06;5068863;28;21228;-82
2021/12/10 02:28:48;;;;;;;0.10;0.10;;;;;;;5.37;68.64;99471.13;5058728;28;20033;-82
2021/12/10 02:31:16;;;;;;;0.10;0.10;;;;;;;5.43;68.60;99465.72;5053990;28;20029;-81
2021/12/10 02:33:42;;;;;;;0.38;0.38;;;;;;;5.41;68.17;99459.63;5057274;28;20043;-82
2021/12/10 02:36:12;;;;;;;0.10;0.10;;;;;;;5.41;68.26;99446.50;5062485;28;20032;-83
2021/12/10 02:38:43;;;;;;;0.10;0.10;;;;;;;5.46;68.05;99439.38;5060345;28;20037;-82
2021/12/10 02:41:10;;;;;;;0.20;0.20;;;;;;;5.47;68.22;99440.22;5062204;28;20025;-80
2021/12/10 02:43:37;;;;;;;0.30;0.30;;;;;;;5.43;68.56;99439.47;5056309;28;20060;-82
2021/12/10 02:46:04;;;;;;;0.10;0.10;;;;;;;5.47;68.52;99443.75;5061947;28;20116;-82
2021/12/10 02:48:32;;;;;;;0.20;0.20;;;;;;;5.53;68.48;99432.22;5054944;28;20040;-83
2021/12/10 02:51:00;;;;;;;1.73;1.58;;;;;;;5.56;68.36;99426.91;5058256;28;20025;-82
2021/12/10 02:53:29;;;;;;;3.85;2.38;;;;;;;5.58;68.37;99419.88;5057440;28;20290;-81
2021/12/10 02:55:57;;;;;;;0.10;0.10;;;;;;;5.59;68.40;99429.47;5056595;28;20029;-82
2021/12/10 02:58:25;;;;;;;0.10;0.10;;;;;;;5.61;68.34;99411.06;5061329;28;20028;-82
2021/12/10 03:03:41;;;;;;;0.10;0.10;;;;;;;5.70;68.32;99396.84;5075443;28;20919;-82
2021/12/10 03:06:11;;;;;;;0.15;0.15;;;;;;;5.73;68.12;99395.00;5064483;28;20033;-83
2021/12/10 03:08:39;;;;;;;0.10;0.10;;;;;;;5.72;68.21;99390.66;5064444;28;20037;-82
2021/12/10 03:11:06;;;;;;;0.10;0.10;;;;;;;5.74;67.84;99386.19;5052339;28;20033;-83
2021/12/10 03:13:33;;;;;;;0.10;0.10;;;;;;;5.79;67.82;99391.34;5052491;28;20051;-82
2021/12/10 03:16:00;;;;;;;0.10;0.10;;;;;;;5.78;68.02;99385.25;5059158;28;20436;-82
2021/12/10 03:18:26;;;;;;;0.10;0.10;;;;;;;5.82;68.09;99386.88;5064393;28;20032;-82
2021/12/10 03:20:52;;;;;;;0.20;0.20;;;;;;;5.91;67.94;99384.94;5053320;28;20068;-82
2021/12/10 03:23:18;;;;;;;0.10;0.10;;;;;;;5.97;67.55;99376.91;5045813;28;20033;-82
2021/12/10 03:25:45;;;;;;;0.10;0.10;;;;;;;5.99;67.73;99373.38;5058237;28;20038;-82
2021/12/10 03:28:11;;;;;;;0.10;0.10;;;;;;;6.07;67.56;99367.91;5045277;28;20029;-81
2021/12/10 03:30:46;;;;;;;0.10;0.10;;;;;;;6.21;67.58;99369.34;5049573;28;20108;-81
2021/12/10 03:33:12;;;;;;;0.10;0.10;;;;;;;6.15;67.53;99365.94;5042789;28;20083;-81
2021/12/10 03:35:44;;;;;;;0.10;0.10;;;;;;;6.13;67.56;99351.97;5047252;28;20041;-82
2021/12/10 03:38:15;;;;;;;0.15;0.15;;;;;;;6.17;67.82;99352.78;5047244;28;20041;-81
2021/12/10 03:40:41;;;;;;;0.10;0.10;;;;;;;6.04;68.02;99344.31;5038133;28;20037;-80
2021/12/10 03:43:09;;;;;;;0.10;0.10;;;;;;;6.08;67.87;99337.22;5031817;28;20029;-82
2021/12/10 03:45:39;;;;;;;0.10;0.10;;;;;;;6.10;68.34;99346.78;5033489;28;20116;-81
2021/12/10 03:48:12;;;;;;;0.10;0.10;;;;;;;6.13;68.74;99330.94;5048776;28;20041;-81
2021/12/10 03:50:40;;;;;;;0.20;0.20;;;;;;;6.03;68.56;99329.47;5053979;28;20037;-81
2021/12/10 03:53:06;;;;;;;0.10;0.10;;;;;;;5.97;68.76;99319.06;5054720;28;20380;-80
2021/12/10 03:55:33;;;;;;;0.20;0.20;;;;;;;6.00;68.90;99316.38;5057238;28;20037;-80
2021/12/10 03:57:59;;;;;;;0.40;0.40;;;;;;;6.02;68.88;99311.97;5054410;28;20039;-82
2021/12/10 04:00:30;;;;;;;0.30;0.30;;;;;;;5.93;69.02;99310.41;5058168;28;20037;-80
2021/12/10 04:02:57;;;;;;;0.95;0.90;;;;;;;6.02;69.05;99306.69;5052565;28;20030;-82
2021/12/10 04:05:24;;;;;;;0.10;0.10;;;;;;;6.01;68.96;99310.22;5046964;28;20026;-81
2021/12/10 04:07:51;;;;;;;0.13;0.13;;;;;;;6.04;69.16;99302.25;5042377;28;20036;-81
2021/12/10 04:10:19;;;;;;;0.10;0.10;;;;;;;6.06;68.98;99292.56;5048486;28;20066;-82
2021/12/10 04:12:46;;;;;;;0.10;0.10;;;;;;;6.01;69.34;99299.72;5045158;28;20096;-81
2021/12/10 04:15:15;;;;;;;0.10;0.10;;;;;;;6.04;69.01;99291.72;5035741;28;20487;-83
2021/12/10 04:17:41;;;;;;;0.10;0.10;;;;;;;6.04;69.13;99289.09;5026352;28;20051;-82
2021/12/10 04:20:12;;;;;;;0.10;0.10;;;;;;;5.99;69.25;99281.34;5036928;28;20038;-82
2021/12/10 04:22:39;;;;;;;0.15;0.15;;;;;;;6.05;69.46;99269.78;5038604;28;20062;-82
2021/12/10 04:25:07;;;;;;;0.20;0.20;;;;;;;6.07;69.46;99262.75;5038158;28;20029;-82
2021/12/10 04:27:35;;;;;;;0.20;0.20;;;;;;;6.02;69.25;99253.25;5039375;28;20075;-81
2021/12/10 04:30:03;;;;;;;0.20;0.20;;;;;;;6.08;69.38;99246.06;5044470;28;20017;-81
2021/12/10 04:32:29;;;;;;;0.10;0.10;;;;;;;6.07;69.50;99246.97;5034595;28;20034;-81
2021/12/10 04:34:55;;;;;;;0.20;0.20;;;;;;;6.02;69.37;99233.09;5047512;28;20083;-82
2021/12/10 04:37:22;;;;;;;0.50;0.50;;;;;;;6.01;69.68;99226.09;5032450;28;20495;-81
2021/12/10 04:39:48;;;;;;;0.45;0.45;;;;;;;6.05;69.45;99225.09;5034451;28;20104;-81
2021/12/10 04:42:19;;;;;;;0.15;0.15;;;;;;;6.01;69.48;99226.09;5030312;28;20048;-81
2021/12/10 04:44:46;;;;;;;0.47;0.47;;;;;;;6.06;69.29;99223.34;5037342;28;20425;-81
2021/12/10 04:47:13;;;;;;;0.10;0.10;;;;;;;6.02;69.51;99224.31;5035743;28;20033;-81
2021/12/10 04:49:39;;;;;;;0.10;0.10;;;;;;;6.10;69.19;99220.56;5036975;28;20361;-82
2021/12/10 04:52:06;;;;;;;0.20;0.20;;;;;;;6.08;69.37;99211.88;5026101;28;20058;-82
2021/12/10 04:54:34;;;;;;;0.20;0.20;;;;;;;6.05;69.30;99205.84;5027629;28;20045;-84
2021/12/10 04:57:00;;;;;;;0.10;0.10;;;;;;;6.03;69.28;99205.91;5030249;28;20048;-82
2021/12/10 04:59:30;;;;;;;0.13;0.13;;;;;;;6.02;69.37;99200.66;5023372;28;20065;-83
2021/12/10 05:01:58;;;;;;;0.10;0.10;;;;;;;5.97;69.56;99198.16;5031210;28;20107;-81
2021/12/10 05:04:27;;;;;;;0.15;0.15;;;;;;;6.04;69.52;99197.06;5046420;28;20069;-81
2021/12/10 05:06:54;;;;;;;0.20;0.20;;;;;;;6.05;69.27;99193.56;5042267;28;20029;-83
2021/12/10 05:09:21;;;;;;;0.10;0.10;;;;;;;6.13;69.25;99188.06;5029613;28;20489;-80
2021/12/10 05:11:49;;;;;;;0.20;0.20;;;;;;;6.18;68.95;99180.06;5035973;28;20123;-82
2021/12/10 05:14:16;;;;;;;0.10;0.10;;;;;;;6.19;69.06;99177.38;5027738;28;20029;-82
2021/12/10 05:16:45;;;;;;;0.10;0.10;;;;;;;6.19;68.87;99177.38;5024330;28;20462;-83
2021/12/10 05:19:16;;;;;;;0.10;0.10;;;;;;;6.15;69.01;99175.75;5022599;28;20030;-82
2021/12/10 05:21:45;;;;;;;0.10;0.10;;;;;;;6.18;69.18;99174.78;5028554;28;20464;-81
2021/12/10 05:24:12;;;;;;;0.20;0.20;;;;;;;6.22;68.82;99171.16;5028417;28;20065;-82
2021/12/10 05:26:39;;;;;;;0.10;0.10;;;;;;;6.25;69.05;99171.09;5027023;28;20065;-83
2021/12/10 05:29:07;;;;;;;12.40;1.80;;;;;;;6.23;68.71;99173.78;5021862;28;20520;-82
2021/12/10 05:31:39;;;;;;;1.13;1.13;;;;;;;6.25;68.98;99171.09;5025963;28;20037;-82
2021/12/10 05:34:05;;;;;;;0.10;0.10;;;;;;;6.19;68.65;99164.22;5026491;28;20026;-82
2021/12/10 05:39:11;;;;;;;0.10;0.10;;;;;;;6.29;68.47;99162.19;5010415;28;20049;-88
2021/12/10 05:41:41;;;;;;;0.10;0.10;;;;;;;6.29;68.82;99164.81;5015966;28;20033;-87
2021/12/10 05:44:07;;;;;;;0.10;0.10;;;;;;;6.30;68.12;99169.19;5013495;28;20064;-88
2021/12/10 05:46:37;;;;;;;0.10;0.10;;;;;;;6.28;68.26;99170.97;5011130;28;20033;-87
2021/12/10 05:49:08;;;;;;;0.10;0.10;;;;;;;6.34;68.53;99170.81;5011418;28;20034;-87
2021/12/10 05:51:36;;;;;;;0.10;0.10;;;;;;;6.34;68.34;99170.81;5013789;28;20397;-87
2021/12/10 05:54:03;;;;;;;0.10;0.10;;;;;;;6.34;68.00;99164.69;5015186;28;20040;-87
2021/12/10 05:56:29;;;;;;;0.10;0.10;;;;;;;6.35;67.98;99167.28;5012999;28;20046;-87
2021/12/10 05:58:56;;;;;;;0.10;0.10;;;;;;;6.34;67.89;99159.44;5020783;28;20038;-87
2021/12/10 06:01:24;;;;;;;0.10;0.10;;;;;;;6.35;68.28;99161.16;5014674;28;20073;-82
2021/12/10 06:03:52;;;;;;;0.10;0.10;;;;;;;6.28;67.59;99155.19;5019593;28;20500;-86
2021/12/10 06:06:22;;;;;;;0.10;0.10;;;;;;;6.32;67.64;99151.59;5032942;28;20037;-87
2021/12/10 06:08:49;;;;;;;0.10;0.10;;;;;;;6.28;67.45;99149.94;5016596;28;20477;-86
2021/12/10 06:11:17;;;;;;;0.10;0.10;;;;;;;6.32;67.95;99167.38;5019720;28;20069;-87
2021/12/10 06:13:45;;;;;;;0.73;0.73;;;;;;;6.39;67.31;99168.03;5014079;28;20104;-87
2021/12/10 06:16:12;;;;;;;0.10;0.10;;;;;;;6.37;67.31;99168.09;5013164;28;20022;-87
2021/12/10 06:18:38;;;;;;;0.10;0.10;;;;;;;6.28;67.18;99163.09;5014062;28;20057;-86
2021/12/10 06:21:05;;;;;;;0.13;0.13;;;;;;;6.39;67.53;99166.28;5013502;28;20904;-87
2021/12/10 06:23:31;;;;;;;0.10;0.10;;;;;;;6.46;67.50;99166.97;5013663;28;20124;-88
2021/12/10 06:25:57;;;;;;;0.10;0.10;;;;;;;6.49;67.57;99169.47;5012760;28;20435;-88
2021/12/10 06:28:23;;;;;;;0.10;0.10;;;;;;;6.47;67.52;99169.53;5013777;28;20056;-87
2021/12/10 06:30:51;;;;;;;0.10;0.10;;;;;;;6.40;67.62;99161.88;5007247;28;20040;-87
2021/12/10 06:33:20;;;;;;;0.20;0.20;;;;;;;6.37;67.66;99167.22;5008863;28;20037;-87
2021/12/10 06:35:49;;;;;;;0.10;0.10;;;;;;;6.38;67.69;99171.56;5013307;28;20034;-87
2021/12/10 06:38:16;;;;;;;0.10;0.10;;;;;;;6.38;67.88;99163.69;5012633;28;20124;-87
2021/12/10 06:40:44;;;;;;;0.10;0.10;;;;;;;6.32;67.44;99164.75;5013734;28;20026;-87
2021/12/10 06:43:12;;;;;;;0.10;0.10;;;;;;;6.31;67.65;99166.50;5013727;28;20045;-86
2021/12/10 06:45:40;;;;;;;0.10;0.10;;;;;;;6.27;67.33;99164.88;5012896;28;20034;-88
2021/12/10 06:48:08;;;;;;;0.10;0.10;;;;;;;6.32;67.42;99167.38;5013140;28;20034;-86
2021/12/10 06:50:40;;;;;;;0.20;0.20;;;;;;;6.33;67.50;99166.47;5012673;28;20033;-87
2021/12/10 06:53:06;;;;;;;0.30;0.30;;;;;;;6.31;67.50;99165.66;5013085;28;20034;-88
2021/12/10 06:55:33;;;;;;;0.10;0.10;;;;;;;6.25;67.30;99160.56;5012200;28;20057;-87
2021/12/10 06:58:00;;;;;;;0.10;0.10;;;;;;;6.29;67.18;99170.09;5012271;28;20036;-87
2021/12/10 07:00:41;;;;;;;0.10;0.10;;;;;;;6.34;66.97;99162.91;5013650;28;20498;-88
2021/12/10 07:03:10;;;;;;;0.20;0.20;;;;;;;6.32;67.20;99168.22;5009275;28;20120;-87
2021/12/10 07:05:37;;;;;;;0.20;0.20;;;;;;;6.34;67.02;99176.06;5011760;28;20465;-87
2021/12/10 07:08:03;;;;;;;0.10;0.10;;;;;;;6.34;67.13;99170.81;5036003;23;20099;-82
2021/12/10 07:10:30;;;;;;;1.85;0.75;;;;;;;6.30;66.99;99169.19;5034806;28;20025;-83
2021/12/10 07:12:56;;;;;;;0.20;0.20;;;;;;;6.32;66.97;99175.28;5034974;28;20468;-84
2021/12/10 07:15:23;;;;;;;0.20;0.20;;;;;;;6.35;66.78;99171.69;5034612;28;20108;-83
2021/12/10 07:17:51;;;;;;;0.17;0.17;;;;;;;6.36;66.87;99171.63;5034453;28;20392;-83
2021/12/10 07:20:21;;;;;;;0.20;0.20;;;;;;;6.36;67.05;99171.63;5034666;28;20049;-83
2021/12/10 07:22:47;;;;;;;0.20;0.20;;;;;;;6.41;67.00;99179.41;5034841;28;20357;-83
2021/12/10 07:25:14;;;;;;;0.13;0.13;;;;;;;6.39;67.01;99173.31;5034977;28;20021;-82
2021/12/10 07:27:40;;;;;;;0.73;0.73;;;;;;;6.37;66.64;99181.25;5034536;28;20500;-83
2021/12/10 07:30:07;;;;;;;0.20;0.20;;;;;;;6.34;66.63;99180.47;5034320;28;20068;-83
2021/12/10 07:32:34;;;;;;;0.15;0.15;;;;;;;6.39;66.53;99181.19;5034171;28;20033;-83
2021/12/10 07:35:01;;;;;;;0.28;0.28;;;;;;;6.38;66.36;99185.59;5034264;28;20061;-82
2021/12/10 07:37:27;;;;;;;0.10;0.10;;;;;;;6.37;66.63;99191.78;5034244;28;20477;-82
2021/12/10 07:39:54;;;;;;;0.20;0.20;;;;;;;6.32;66.34;99189.28;5032391;28;20065;-82
2021/12/10 07:42:22;;;;;;;0.10;0.10;;;;;;;6.43;66.87;99191.59;5033894;28;20057;-82
2021/12/10 07:44:50;;;;;;;0.10;0.10;;;;;;;6.43;66.81;99193.34;5032384;28;20041;-82
2021/12/10 07:47:16;;;;;;;0.20;0.20;;;;;;;6.45;66.91;99194.16;5033905;28;20483;-86
2021/12/10 07:49:44;;;;;;;0.10;0.10;;;;;;;6.44;67.00;99189.81;5036468;28;20073;-82
2021/12/10 07:52:20;;;;;;;0.20;0.20;;;;;;;6.46;66.81;99201.16;5036385;28;20440;-82
2021/12/10 07:54:48;;;;;;;0.10;0.10;;;;;;;6.48;67.09;99197.56;5036942;28;20104;-82
2021/12/10 07:57:16;;;;;;;0.10;0.10;;;;;;;6.48;66.95;99202.84;5037081;28;20117;-82
2021/12/10 07:59:43;;;;;;;0.20;0.20;;;;;;;6.44;67.15;99203.84;5037157;28;20456;-82
2021/12/10 08:02:11;;;;;;;0.20;0.20;;;;;;;6.50;66.91;99210.69;5037141;28;20499;-78
2021/12/10 08:04:38;;;;;;;0.10;0.10;;;;;;;6.48;67.50;99202.84;5037521;28;20025;-82
2021/12/10 08:07:10;;;;;;;0.20;0.20;;;;;;;6.53;66.94;99201.84;5037415;28;20119;-84
2021/12/10 08:09:36;;;;;;;0.10;0.10;;;;;;;6.56;67.07;99201.75;5037182;28;20155;-84
2021/12/10 08:12:03;;;;;;;0.20;0.20;;;;;;;6.58;66.92;99199.91;5035690;28;20426;-84
2021/12/10 08:14:29;;;;;;;0.10;0.10;;;;;;;6.57;66.91;99199.06;5037305;28;20025;-84
2021/12/10 08:16:55;;;;;;;0.10;0.10;;;;;;;6.58;66.87;99199.91;5037775;28;20035;-85
2021/12/10 08:19:21;;;;;;;0.20;0.20;;;;;;;6.56;67.15;99199.13;5038014;28;20033;-85
2021/12/10 08:21:48;;;;;;;0.10;0.10;;;;;;;6.62;66.60;99212.09;5037701;28;20065;-86
2021/12/10 08:24:14;;;;;;;0.10;0.10;;;;;;;6.59;66.92;99207.78;5037552;28;20132;-84
2021/12/10 08:26:41;;;;;;;0.20;0.20;;;;;;;6.57;66.92;99203.47;5036118;28;20456;-86
2021/12/10 08:29:08;;;;;;;0.20;0.20;;;;;;;6.58;66.65;99211.31;5019690;28;20033;-85
2021/12/10 08:31:36;;;;;;;0.20;0.20;;;;;;;6.56;67.19;99207.03;5037033;28;20072;-84
2021/12/10 08:34:03;;;;;;;0.10;0.10;;;;;;;6.59;67.19;99209.53;5037272;28;20068;-86
2021/12/10 08:36:33;;;;;;;0.10;0.10;;;;;;;6.65;67.09;99212.00;5036491;28;20025;-85
2021/12/10 08:38:59;;;;;;;0.10;0.10;;;;;;;6.65;67.08;99214.63;5037493;28;20033;-86
2021/12/10 08:41:29;;;;;;;0.10;0.10;;;;;;;6.66;67.34;99211.09;5036672;28;20567;-86
2021/12/10 08:43:56;;;;;;;0.20;0.20;;;;;;;6.61;67.41;99210.38;5036124;28;20060;-86
2021/12/10 08:46:25;;;;;;;0.20;0.20;;;;;;;6.70;67.31;99212.72;5035434;28;20034;-86
2021/12/10 08:48:51;;;;;;;0.10;0.10;;;;;;;6.65;67.27;99212.00;5034570;28;20108;-85
2021/12/10 08:51:25;;;;;;;0.10;0.10;;;;;;;6.63;67.58;99225.19;5036362;28;20041;-85
2021/12/10 08:53:52;;;;;;;0.10;0.10;;;;;;;6.61;67.59;99226.16;5036238;28;20036;-85
2021/12/10 08:56:20;;;;;;;0.15;0.15;;;;;;;6.62;67.92;99218.22;5036607;28;20047;-85
2021/12/10 08:58:46;;;;;;;0.10;0.10;;;;;;;6.62;67.47;99227.88;5036070;28;20026;-86
2021/12/10 09:01:16;;;;;;;1.20;1.20;;;;;;;6.69;67.53;99226.81;5036557;28;20087;-86
2021/12/10 09:03:47;;;;;;;0.20;0.20;;;;;;;6.74;67.71;99224.88;5036269;28;20033;-86
2021/12/10 09:06:15;;;;;;;0.20;0.20;;;;;;;6.74;67.84;99230.16;5036305;28;20026;-86
2021/12/10 09:08:41;;;;;;;0.10;0.10;;;;;;;6.82;67.28;99240.44;5036057;28;20041;-86
2021/12/10 09:11:10;;;;;;;0.10;0.10;;;;;;;6.87;67.51;99242.94;5036071;28;20061;-85
2021/12/10 09:13:37;;;;;;;0.10;0.10;;;;;;;6.88;67.62;99244.66;5036161;28;20036;-85
2021/12/10 09:16:12;;;;;;;0.10;0.10;;;;;;;6.92;67.65;99241.03;5035677;28;20032;-84
2021/12/10 09:18:40;;;;;;;0.10;0.10;;;;;;;6.85;67.40;99237.69;5033854;28;20498;-85
2021/12/10 09:21:08;;;;;;;0.20;0.20;;;;;;;6.82;67.33;99250.97;5035835;28;20065;-82
2021/12/10 09:23:35;;;;;;;0.20;0.20;;;;;;;6.86;67.23;99252.59;5036364;28;20076;-86
2021/12/10 09:26:07;;;;;;;0.20;0.20;;;;;;;6.86;67.46;99251.75;5034474;28;20040;-85
2021/12/10 09:28:36;;;;;;;0.20;0.20;;;;;;;6.84;67.41;99258.81;5036433;28;20419;-85
2021/12/10 09:31:04;;;;;;;0.10;0.10;;;;;;;6.80;67.32;99258.94;5035732;28;20053;-85
2021/12/10 09:33:30;;;;;;;0.10;0.10;;;;;;;6.82;67.28;99263.25;5035563;28;20052;-84
2021/12/10 09:35:58;;;;;;;0.10;0.10;;;;;;;6.80;67.79;99264.19;5035354;28;20376;-86
2021/12/10 09:38:25;;;;;;;0.10;0.10;;;;;;;6.82;67.55;99263.25;5035630;28;20107;-85
2021/12/10 09:40:56;;;;;;;0.10;0.10;;;;;;;6.85;67.29;99268.44;5035404;28;20040;-86
2021/12/10 09:43:23;;;;;;;0.10;0.10;;;;;;;6.79;67.27;99267.72;5036240;28;20033;-86
2021/12/10 09:45:52;;;;;;;0.10;0.10;;;;;;;6.85;67.57;99265.81;5034040;28;20037;-86
2021/12/10 09:48:20;;;;;;;0.20;0.20;;;;;;;6.81;67.92;99265.03;5032779;28;20029;-84
2021/12/10 09:50:54;;;;;;;0.10;0.10;;;;;;;6.84;67.10;99269.34;5034153;28;20539;-84
2021/12/10 09:53:21;;;;;;;0.55;0.55;;;;;;;6.78;67.40;99271.25;5034121;28;20508;-85
2021/12/10 09:55:48;;;;;;;2.35;2.15;;;;;;;6.83;67.35;99279.03;5033884;28;20171;-85
2021/12/10 09:58:16;;;;;;;1.05;1.05;;;;;;;6.90;67.17;99280.56;5034127;28;20065;-86
2021/12/10 10:00:46;;;;;;;0.20;0.20;;;;;;;6.89;67.49;99277.97;5033884;28;20030;-86
2021/12/10 10:03:15;;;;;;;0.20;0.20;;;;;;;6.91;67.20;99281.44;5032521;28;20033;-84
2021/12/10 10:05:45;;;;;;;0.17;0.17;;;;;;;7.01;67.49;99280.22;5048696;28;20040;-85
2021/12/10 10:08:16;;;;;;;0.10;0.10;;;;;;;7.10;67.42;99286.97;5033884;28;20108;-84
2021/12/10 10:10:50;;;;;;;0.20;0.20;;;;;;;7.14;67.24;99288.63;5034122;28;20032;-84
2021/12/10 10:13:19;;;;;;;0.10;0.10;;;;;;;7.17;67.17;99282.41;5048665;28;20290;-84
2021/12/10 10:15:46;;;;;;;0.32;0.32;;;;;;;7.18;67.01;99284.09;5033607;28;20076;-84
2021/12/10 10:18:14;;;;;;;0.20;0.20;;;;;;;7.26;67.22;99290.00;5031272;28;20018;-84
2021/12/10 10:20:45;;;;;;;0.10;0.10;;;;;;;7.33;66.92;99286.28;5031517;28;20041;-81
2021/12/10 10:23:11;;;;;;;0.17;0.17;;;;;;;7.34;67.09;99288.00;5033669;28;20484;-84
2021/12/10 10:25:43;;;;;;;0.10;0.10;;;;;;;7.34;67.15;99289.75;5030963;28;20029;-84
2021/12/10 10:28:11;;;;;;;0.20;0.20;;;;;;;7.36;67.38;99294.06;5031764;28;20033;-85
2021/12/10 10:30:52;;;;;;;0.10;0.10;;;;;;;7.41;67.13;99294.81;5033559;28;20026;-85
2021/12/10 10:33:20;;;;;;;0.28;0.28;;;;;;;7.35;66.96;99292.38;5033729;28;20047;-84
2021/12/10 10:35:51;;;;;;;0.20;0.20;;;;;;;7.31;66.97;99285.44;5031638;28;20033;-84
2021/12/10 10:38:19;;;;;;;0.20;0.20;;;;;;;7.29;66.59;99289.94;5027782;28;20028;-84
2021/12/10 10:40:54;;;;;;;2.08;0.68;;;;;;;7.33;66.27;99294.19;5033469;28;20496;-84
2021/12/10 10:43:24;;;;;;;0.10;0.10;;;;;;;7.32;66.30;99292.44;5033356;28;20423;-85
2021/12/10 10:45:51;;;;;;;0.20;0.20;;;;;;;7.33;66.54;99294.19;5032290;28;20033;-85
2021/12/10 10:48:19;;;;;;;0.10;0.10;;;;;;;7.35;66.71;99297.66;5033818;28;20075;-85
2021/12/10 10:53:37;;;;;;;0.20;0.20;;;;;;;7.53;66.60;99297.97;5111666;27;20404;-81
2021/12/10 10:56:08;;;;;;;0.50;0.50;;;;;;;7.58;66.38;99301.31;5109918;28;20035;-84
2021/12/10 10:58:42;;;;;;;0.63;0.63;;;;;;;7.61;66.11;99303.81;5111774;28;20035;-84
2021/12/10 11:01:23;;;;;;;0.20;0.20;;;;;;;7.70;66.99;99303.53;5110709;28;20032;-85
2021/12/10 11:03:57;;;;;;;0.20;0.20;;;;;;;7.72;66.69;99306.97;5102197;28;20036;-84
2021/12/10 11:06:29;;;;;;;0.20;0.20;;;;;;;7.76;66.64;99305.97;5093510;28;20474;-85
2021/12/10 11:09:14;;;;;;;0.10;0.10;;;;;;;7.86;66.34;99309.19;5079145;28;20487;-83
2021/12/10 11:11:48;;;;;;;0.10;0.10;;;;;;;7.86;66.80;99300.38;5087868;28;20032;-86
2021/12/10 11:14:26;;;;;;;0.15;0.15;;;;;;;7.92;66.52;99303.69;5089819;28;20483;-85
2021/12/10 11:17:01;;;;;;;0.20;0.20;;;;;;;7.94;66.43;99301.84;5090076;28;20108;-84
2021/12/10 11:19:29;;;;;;;0.10;0.10;;;;;;;8.00;66.91;99300.78;5085149;28;20028;-86
2021/12/10 11:21:59;;;;;;;0.10;0.10;;;;;;;8.05;66.81;99304.13;5084470;28;20043;-85
2021/12/10 11:27:09;;;;;;;0.10;0.10;;;;;;;8.08;66.52;99309.28;5071414;27;21019;-84
2021/12/10 11:38:07;;;;;;;0.10;0.10;;;;;;;8.08;65.10;99318.97;5071901;27;20411;-86
2021/12/10 11:57:34;;;;;;;0.65;0.65;;;;;;;8.13;65.56;99334.66;5069535;28;20410;-84
2021/12/10 12:00:09;;;;;;;0.20;0.20;;;;;;;8.14;65.54;99326.69;5048574;28;20037;-85
2021/12/10 12:02:47;;;;;;;0.20;0.20;;;;;;;8.20;65.61;99326.47;5050412;28;20136;-83
2021/12/10 12:05:18;;;;;;;0.25;0.25;;;;;;;8.14;65.35;99336.34;5049068;28;20033;-83
2021/12/10 12:07:48;;;;;;;0.10;0.10;;;;;;;8.16;65.69;99337.19;5032625;28;20068;-90
2021/12/10 12:13:24;;;;;;;0.40;0.40;;;;;;;8.09;65.54;99342.66;5091568;27;20439;-83
2021/12/10 12:15:55;;;;;;;0.10;0.10;;;;;;;8.15;65.17;99346.88;5071478;28;20031;-83
2021/12/10 12:18:25;;;;;;;0.10;0.10;;;;;;;8.16;65.22;99358.28;5045702;28;20109;-83
2021/12/10 12:26:38;;;;;;;0.20;0.20;;;;;;;7.99;64.89;99349.16;5031069;28;20030;-84
2021/12/10 12:29:09;;;;;;;0.10;0.10;;;;;;;7.97;65.48;99352.78;5042406;28;20040;-82
2021/12/10 12:31:43;;;;;;;0.10;0.10;;;;;;;7.97;65.44;99361.53;5051039;28;20033;-84
2021/12/10 12:34:27;;;;;;;1.85;1.00;;;;;;;7.98;65.04;99365.06;5050430;28;20029;-85
2021/12/10 12:37:18;;;;;;;0.20;0.20;;;;;;;8.01;65.11;99371.09;5050545;28;20447;-85
2021/12/10 12:39:52;;;;;;;0.10;0.10;;;;;;;7.93;64.90;99381.03;5030813;28;20029;-84
2021/12/10 12:42:24;;;;;;;0.10;0.10;;;;;;;7.97;65.06;99374.72;5030353;28;20389;-84
2021/12/10 12:44:56;;;;;;;0.10;0.10;;;;;;;7.94;65.49;99386.25;5041962;28;20024;-87
2021/12/10 12:47:32;;;;;;;0.20;0.20;;;;;;;7.96;65.26;99382.69;5030919;28;20048;-86